Flying Dolphin Xxix — SW9853 — position and weather

sailwx.info

Track history (hours):
 
Tides and Currents Weather Stations Pressure Air Temp Water Temp Dewpoint Dewpoint Depression Visibility Wind Speed Wind Dir Waves Ship Positions

Flying Dolphin Xxix

Last reported at 2018-Jul-16 16:03 UTC. Time now 2018-Jul-17 05:30 UTC.
Position N 37°57' E 023°39'.

Length 34 m.

Type: High speed craft. MMSI: 237024500.

Date/timePositionNaut miles runAvg speedWind from/ knotsBaromVisibWave heightAir tempDewpointWater temp
2018-Jul-16 16:03N 37°57' E 023°39'0 0.2
2018-Jul-16 16:00N 37°57' E 023°39'1326.4
2018-Jul-16 15:31N 37°47' E 023°27'612.6
2018-Jul-16 15:00N 37°43' E 023°21'4 8.3
2018-Jul-16 14:31N 37°45' E 023°25'1530.1
2018-Jul-16 14:00N 37°56' E 023°38'1 2.8
2018-Jul-16 13:31N 37°55' E 023°36'1421.9
2018-Jul-16 12:53N 37°45' E 023°26'1026.0
2018-Jul-16 12:30N 37°53' E 023°33'611.3
2018-Jul-16 12:00N 37°57' E 023°38'1427.3
2018-Jul-16 11:31N 37°47' E 023°26'611.7
2018-Jul-16 11:00N 37°43' E 023°21'4 7.8
2018-Jul-16 10:31N 37°45' E 023°25'1530.1
2018-Jul-16 10:01N 37°56' E 023°38'2 3.8
2018-Jul-16 09:31N 37°55' E 023°36'1326.6
2018-Jul-16 09:01N 37°45' E 023°26'918.1
2018-Jul-16 08:30N 37°52' E 023°33'713.4
2018-Jul-16 08:00N 37°57' E 023°39'1223.2
2018-Jul-16 07:29N 37°48' E 023°28'714.3
2018-Jul-16 07:01N 37°43' E 023°22'3 6.6
2018-Jul-16 06:29N 37°45' E 023°26'1428.8
2018-Jul-16 06:01N 37°55' E 023°36'2 4.2
2018-Jul-16 05:30N 37°57' E 023°39'0 0.0
2018-Jul-15 16:39N 37°57' E 023°38'0 1.2
2018-Jul-15 16:30N 37°57' E 023°39'3 5.6
2018-Jul-15 16:01N 37°55' E 023°36'1323.5
2018-Jul-15 15:27N 37°45' E 023°26'4 8.6
2018-Jul-15 15:01N 37°43' E 023°21'1020.0
2018-Jul-15 14:31N 37°50' E 023°30'918.5
2018-Jul-15 14:00N 37°57' E 023°39'1224.3
2018-Jul-15 13:30N 37°48' E 023°28'3 5.3
2018-Jul-15 13:01N 37°46' E 023°25'1428.9
2018-Jul-15 12:30N 37°57' E 023°38'4 7.9
2018-Jul-15 12:01N 37°54' E 023°35'1219.3
2018-Jul-15 11:25N 37°45' E 023°26'410.0
2018-Jul-15 11:00N 37°43' E 023°21'4 7.4
2018-Jul-15 10:29N 37°45' E 023°25'1531.6
2018-Jul-15 10:00N 37°56' E 023°37'1 0.1
2018-Jul-14 16:27N 37°57' E 023°39'1022.2
2018-Jul-14 16:01N 37°49' E 023°30'817.0
2018-Jul-14 15:30N 37°44' E 023°22'3 6.0
2018-Jul-14 15:00N 37°45' E 023°26'1020.5
2018-Jul-14 14:31N 37°52' E 023°34'7 7.5
2018-Jul-14 13:31N 37°47' E 023°27'1 1.5
2018-Jul-14 13:01N 37°48' E 023°28'1224.6
2018-Jul-14 12:30N 37°57' E 023°39'612.7
2018-Jul-14 12:01N 37°52' E 023°34'1120.4
2018-Jul-14 11:28N 37°44' E 023°23'0 1.1
2018-Jul-14 11:01N 37°44' E 023°24'815.2
2018-Jul-14 10:31N 37°50' E 023°31'918.9
2018-Jul-14 10:00N 37°57' E 023°39'713.9
2018-Jul-14 09:31N 37°51' E 023°33'915.3
2018-Jul-14 08:56N 37°45' E 023°26'1126.8
2018-Jul-14 08:31N 37°54' E 023°34'4 8.9
2018-Jul-14 08:00N 37°57' E 023°39'1327.0
2018-Jul-14 07:31N 37°47' E 023°27'612.3
2018-Jul-14 07:01N 37°43' E 023°21'4 7.2
2018-Jul-14 06:30N 37°45' E 023°25'1530.9
2018-Jul-14 06:01N 37°56' E 023°37'1 2.0
2018-Jul-14 05:30N 37°57' E 023°39'0 0.0
2018-Jul-13 18:29N 37°57' E 023°39'1021.4
2018-Jul-13 18:01N 37°49' E 023°30'918.8
2018-Jul-13 17:30N 37°43' E 023°21'4 7.2
2018-Jul-13 17:00N 37°45' E 023°25'1531.2
2018-Jul-13 16:30N 37°56' E 023°38'1 2.3
2018-Jul-13 16:01N 37°57' E 023°36'2 0.3
2018-Jul-13 09:11N 37°58' E 023°34'0 0.8
2018-Jul-13 09:01N 37°57' E 023°34'4 7.5
2018-Jul-13 08:31N 37°57' E 023°39'1121.1
2018-Jul-13 08:01N 37°49' E 023°30'816.4
2018-Jul-13 07:31N 37°44' E 023°22'3 6.5
2018-Jul-13 07:00N 37°45' E 023°26'917.4
2018-Jul-13 06:31N 37°51' E 023°33'714.4
2018-Jul-13 06:00N 37°57' E 023°39'5 9.8
2018-Jul-13 05:30N 37°53' E 023°35'1115.1
2018-Jul-13 04:47N 37°45' E 023°26'517.2
2018-Jul-13 04:30N 37°49' E 023°29'1121.8
2018-Jul-13 04:00N 37°57' E 023°39'0 0.0
2018-Jul-12 14:54N 37°57' E 023°39'1 1.5
2018-Jul-12 14:31N 37°56' E 023°38'0 1.0
2018-Jul-12 14:00N 37°57' E 023°38'0 0.0
2018-Jul-12 13:30N 37°57' E 023°38'0 0.0
2018-Jul-12 13:00N 37°57' E 023°38'0 0.0
2018-Jul-12 12:30N 37°57' E 023°38'0 0.0
2018-Jul-12 10:14N 37°57' E 023°38'0 0.4
2018-Jul-12 09:51N 37°57' E 023°39'719.9
2018-Jul-12 09:30N 37°53' E 023°31'1019.0
2018-Jul-12 09:00N 37°45' E 023°26'1224.8
2018-Jul-12 08:31N 37°55' E 023°34'3 6.4
2018-Jul-12 08:00N 37°56' E 023°38'1428.7
2018-Jul-12 07:31N 37°46' E 023°25'5 9.4
2018-Jul-12 07:00N 37°43' E 023°21'713.3
2018-Jul-12 06:31N 37°48' E 023°27'1326.1
2018-Jul-12 06:00N 37°57' E 023°39'4 8.6
2018-Jul-12 05:31N 37°55' E 023°34'1215.0
2018-Jul-12 04:43N 37°45' E 023°26'525.2
2018-Jul-12 04:30N 37°49' E 023°29'1121.3
2018-Jul-12 04:00N 37°57' E 023°39'0 0.0
2018-Jul-11 12:25N 37°57' E 023°39'921.1
2018-Jul-11 12:01N 37°50' E 023°32'918.8
2018-Jul-11 11:31N 37°44' E 023°23'3 5.1
2018-Jul-11 11:00N 37°45' E 023°26'918.2
2018-Jul-11 10:31N 37°52' E 023°33'713.5
2018-Jul-11 10:00N 37°57' E 023°39'1323.7
2018-Jul-11 09:27N 37°47' E 023°27'2 3.5
2018-Jul-11 09:01N 37°47' E 023°25'1428.4
2018-Jul-11 08:30N 37°56' E 023°38'1516.9
2018-Jul-11 07:35N 37°45' E 023°24'1 4.2
2018-Jul-11 07:20N 37°45' E 023°26'412.7
2018-Jul-11 07:00N 37°43' E 023°21'510.8
2018-Jul-11 06:31N 37°47' E 023°26'1427.9
2018-Jul-11 06:01N 37°57' E 023°38'3 6.6
2018-Jul-11 05:31N 37°54' E 023°36'1216.4
2018-Jul-11 04:46N 37°45' E 023°26'521.1
2018-Jul-11 04:31N 37°49' E 023°30'1020.7
2018-Jul-11 04:00N 37°57' E 023°39'0 0.0
2018-Jul-10 18:04N 37°57' E 023°39'0 0.0
2018-Jul-10 18:00N 37°57' E 023°39'1325.6
2018-Jul-10 17:31N 37°48' E 023°27'713.7
2018-Jul-10 17:00N 37°43' E 023°21'713.3
2018-Jul-10 16:31N 37°48' E 023°27'1326.1
2018-Jul-10 16:01N 37°57' E 023°39'0 0.0
2018-Jul-10 13:59N 37°57' E 023°39'817.0
2018-Jul-10 13:31N 37°51' E 023°32'815.0
2018-Jul-10 13:00N 37°45' E 023°25'1530.0
2018-Jul-10 12:30N 37°56' E 023°38'510.7
2018-Jul-10 12:01N 37°52' E 023°34'1019.4
2018-Jul-10 11:30N 37°45' E 023°26'3 6.8
2018-Jul-10 11:00N 37°43' E 023°22'815.5
2018-Jul-10 10:31N 37°49' E 023°29'1121.9
2018-Jul-10 10:00N 37°57' E 023°39'510.4
2018-Jul-10 09:31N 37°53' E 023°34'1116.7
2018-Jul-10 08:53N 37°45' E 023°26'1027.4
2018-Jul-10 08:31N 37°52' E 023°34'611.2
2018-Jul-10 08:00N 37°57' E 023°39'1427.4
2018-Jul-10 07:31N 37°47' E 023°27'611.6
2018-Jul-10 07:00N 37°43' E 023°21'4 7.1
2018-Jul-10 06:30N 37°45' E 023°25'1531.1
2018-Jul-10 06:01N 37°56' E 023°37'1 2.3
2018-Jul-10 05:30N 37°57' E 023°39'0 0.0
2018-Jul-09 16:07N 37°57' E 023°39'0 0.0
2018-Jul-09 16:01N 37°57' E 023°39'1326.3
2018-Jul-09 15:30N 37°47' E 023°27'711.8
2018-Jul-09 14:57N 37°43' E 023°21'410.0
2018-Jul-09 14:31N 37°46' E 023°25'1529.8
2018-Jul-09 14:00N 37°57' E 023°38'611.8
2018-Jul-09 13:31N 37°52' E 023°33'919.0
2018-Jul-09 13:00N 37°45' E 023°26'1326.2
2018-Jul-09 12:31N 37°55' E 023°36'3 5.0
2018-Jul-09 12:01N 37°57' E 023°38'1427.9
2018-Jul-09 11:30N 37°47' E 023°26'510.9
2018-Jul-09 11:00N 37°43' E 023°21'613.0
2018-Jul-09 10:31N 37°47' E 023°27'1326.3
2018-Jul-09 10:00N 37°57' E 023°39'714.5
2018-Jul-09 09:31N 37°51' E 023°33'916.1
2018-Jul-09 08:58N 37°45' E 023°25'1226.0
2018-Jul-09 08:31N 37°54' E 023°35'3 6.4
2018-Jul-09 08:00N 37°56' E 023°38'1530.1
2018-Jul-09 07:30N 37°45' E 023°25'1 0.9
2018-Jul-09 06:51N 37°45' E 023°24'1421.4
2018-Jul-09 06:11N 37°55' E 023°36'213.7
2018-Jul-09 06:01N 37°57' E 023°39'4 8.2
2018-Jul-09 05:31N 37°53' E 023°36'1214.9
2018-Jul-09 04:42N 37°45' E 023°25'628.7
2018-Jul-09 04:31N 37°49' E 023°30'1020.6
2018-Jul-09 04:01N 37°57' E 023°39'0 0.0
2018-Jul-08 18:52N 37°57' E 023°39'0 0.1
2018-Jul-08 18:30N 37°57' E 023°39'816.8
2018-Jul-08 18:00N 37°52' E 023°30'918.5
2018-Jul-08 17:30N 37°44' E 023°24'1 1.9
2018-Jul-08 17:01N 37°45' E 023°24'1019.9
2018-Jul-08 16:31N 37°53' E 023°30'714.3
2018-Jul-08 16:00N 37°57' E 023°39'1427.2
2018-Jul-08 15:30N 37°47' E 023°26'611.8
2018-Jul-08 14:59N 37°43' E 023°21'4 9.3
2018-Jul-08 14:30N 37°46' E 023°25'1529.4
2018-Jul-08 14:00N 37°56' E 023°38'2 4.3
2018-Jul-08 13:31N 37°55' E 023°36'1321.7
2018-Jul-08 12:54N 37°45' E 023°26'820.0
2018-Jul-08 12:31N 37°51' E 023°32'815.5
2018-Jul-08 12:01N 37°57' E 023°39'1224.8
2018-Jul-08 11:30N 37°48' E 023°28'714.5
2018-Jul-08 11:01N 37°43' E 023°21'4 7.3
2018-Jul-08 10:31N 37°45' E 023°25'1530.8
2018-Jul-08 10:00N 37°56' E 023°38'1 1.5
2018-Jul-08 09:30N 37°57' E 023°39'0 0.0
2018-Jul-07 16:03N 37°57' E 023°39'0 0.1
2018-Jul-07 16:00N 37°57' E 023°39'1325.9
2018-Jul-07 15:30N 37°47' E 023°27'713.4
2018-Jul-07 15:00N 37°43' E 023°21'4 8.2
2018-Jul-07 14:30N 37°45' E 023°26'1529.3
2018-Jul-07 14:01N 37°56' E 023°37'1 1.9
2018-Jul-07 13:31N 37°55' E 023°36'1426.7
2018-Jul-07 13:00N 37°45' E 023°26'713.5
2018-Jul-07 12:31N 37°50' E 023°31'918.2
2018-Jul-07 12:00N 37°57' E 023°39'1224.6
2018-Jul-07 11:30N 37°48' E 023°28'714.9
2018-Jul-07 11:00N 37°43' E 023°21'5 9.2
2018-Jul-07 10:31N 37°46' E 023°25'1529.2
2018-Jul-07 10:00N 37°57' E 023°38'3 5.3
2018-Jul-07 09:31N 37°55' E 023°36'1325.2
2018-Jul-07 09:00N 37°45' E 023°26'4 7.8
2018-Jul-07 08:31N 37°48' E 023°28'1223.9
2018-Jul-07 08:01N 37°57' E 023°39'0 0.0
2018-Jul-06 16:13N 37°57' E 023°39'  
Track history (hours):
 
Tides and Currents Weather Stations Pressure Air Temp Water Temp Dewpoint Dewpoint Depression Visibility Wind Speed Wind Dir Waves Ship Positions

Flying Dolphin Xxix

Last reported at 2018-Jul-16 16:03 UTC. Time now 2018-Jul-17 05:30 UTC.
Position N 37°57' E 023°39'.

Length 34 m.

Type: High speed craft. MMSI: 237024500.

Date/timePositionNaut miles runAvg speedWind from/ knotsBaromVisibWave heightAir tempDewpointWater temp
2018-Jul-16 16:03N 37°57' E 023°39'0 0.2
2018-Jul-16 16:00N 37°57' E 023°39'1326.4
2018-Jul-16 15:31N 37°47' E 023°27'612.6
2018-Jul-16 15:00N 37°43' E 023°21'4 8.3
2018-Jul-16 14:31N 37°45' E 023°25'1530.1
2018-Jul-16 14:00N 37°56' E 023°38'1 2.8
2018-Jul-16 13:31N 37°55' E 023°36'1421.9
2018-Jul-16 12:53N 37°45' E 023°26'1026.0
2018-Jul-16 12:30N 37°53' E 023°33'611.3
2018-Jul-16 12:00N 37°57' E 023°38'1427.3
2018-Jul-16 11:31N 37°47' E 023°26'611.7
2018-Jul-16 11:00N 37°43' E 023°21'4 7.8
2018-Jul-16 10:31N 37°45' E 023°25'1530.1
2018-Jul-16 10:01N 37°56' E 023°38'2 3.8
2018-Jul-16 09:31N 37°55' E 023°36'1326.6
2018-Jul-16 09:01N 37°45' E 023°26'918.1
2018-Jul-16 08:30N 37°52' E 023°33'713.4
2018-Jul-16 08:00N 37°57' E 023°39'1223.2
2018-Jul-16 07:29N 37°48' E 023°28'714.3
2018-Jul-16 07:01N 37°43' E 023°22'3 6.6
2018-Jul-16 06:29N 37°45' E 023°26'1428.8
2018-Jul-16 06:01N 37°55' E 023°36'2 4.2
2018-Jul-16 05:30N 37°57' E 023°39'0 0.0
2018-Jul-15 16:39N 37°57' E 023°38'0 1.2
2018-Jul-15 16:30N 37°57' E 023°39'3 5.6
2018-Jul-15 16:01N 37°55' E 023°36'1323.5
2018-Jul-15 15:27N 37°45' E 023°26'4 8.6
2018-Jul-15 15:01N 37°43' E 023°21'1020.0
2018-Jul-15 14:31N 37°50' E 023°30'918.5
2018-Jul-15 14:00N 37°57' E 023°39'1224.3
2018-Jul-15 13:30N 37°48' E 023°28'3 5.3
2018-Jul-15 13:01N 37°46' E 023°25'1428.9
2018-Jul-15 12:30N 37°57' E 023°38'4 7.9
2018-Jul-15 12:01N 37°54' E 023°35'1219.3
2018-Jul-15 11:25N 37°45' E 023°26'410.0
2018-Jul-15 11:00N 37°43' E 023°21'4 7.4
2018-Jul-15 10:29N 37°45' E 023°25'1531.6
2018-Jul-15 10:00N 37°56' E 023°37'1 0.1
2018-Jul-14 16:27N 37°57' E 023°39'1022.2
2018-Jul-14 16:01N 37°49' E 023°30'817.0
2018-Jul-14 15:30N 37°44' E 023°22'3 6.0
2018-Jul-14 15:00N 37°45' E 023°26'1020.5
2018-Jul-14 14:31N 37°52' E 023°34'7 7.5
2018-Jul-14 13:31N 37°47' E 023°27'1 1.5
2018-Jul-14 13:01N 37°48' E 023°28'1224.6
2018-Jul-14 12:30N 37°57' E 023°39'612.7
2018-Jul-14 12:01N 37°52' E 023°34'1120.4
2018-Jul-14 11:28N 37°44' E 023°23'0 1.1
2018-Jul-14 11:01N 37°44' E 023°24'815.2
2018-Jul-14 10:31N 37°50' E 023°31'918.9
2018-Jul-14 10:00N 37°57' E 023°39'713.9
2018-Jul-14 09:31N 37°51' E 023°33'915.3
2018-Jul-14 08:56N 37°45' E 023°26'1126.8
2018-Jul-14 08:31N 37°54' E 023°34'4 8.9
2018-Jul-14 08:00N 37°57' E 023°39'1327.0
2018-Jul-14 07:31N 37°47' E 023°27'612.3
2018-Jul-14 07:01N 37°43' E 023°21'4 7.2
2018-Jul-14 06:30N 37°45' E 023°25'1530.9
2018-Jul-14 06:01N 37°56' E 023°37'1 2.0
2018-Jul-14 05:30N 37°57' E 023°39'0 0.0
2018-Jul-13 18:29N 37°57' E 023°39'1021.4
2018-Jul-13 18:01N 37°49' E 023°30'918.8
2018-Jul-13 17:30N 37°43' E 023°21'4 7.2
2018-Jul-13 17:00N 37°45' E 023°25'1531.2
2018-Jul-13 16:30N 37°56' E 023°38'1 2.3
2018-Jul-13 16:01N 37°57' E 023°36'2 0.3
2018-Jul-13 09:11N 37°58' E 023°34'0 0.8
2018-Jul-13 09:01N 37°57' E 023°34'4 7.5
2018-Jul-13 08:31N 37°57' E 023°39'1121.1
2018-Jul-13 08:01N 37°49' E 023°30'816.4
2018-Jul-13 07:31N 37°44' E 023°22'3 6.5
2018-Jul-13 07:00N 37°45' E 023°26'917.4
2018-Jul-13 06:31N 37°51' E 023°33'714.4
2018-Jul-13 06:00N 37°57' E 023°39'5 9.8
2018-Jul-13 05:30N 37°53' E 023°35'1115.1
2018-Jul-13 04:47N 37°45' E 023°26'517.2
2018-Jul-13 04:30N 37°49' E 023°29'1121.8
2018-Jul-13 04:00N 37°57' E 023°39'0 0.0
2018-Jul-12 14:54N 37°57' E 023°39'1 1.5
2018-Jul-12 14:31N 37°56' E 023°38'0 1.0
2018-Jul-12 14:00N 37°57' E 023°38'0 0.0
2018-Jul-12 13:30N 37°57' E 023°38'0 0.0
2018-Jul-12 13:00N 37°57' E 023°38'0 0.0
2018-Jul-12 12:30N 37°57' E 023°38'0 0.0
2018-Jul-12 10:14N 37°57' E 023°38'0 0.4
2018-Jul-12 09:51N 37°57' E 023°39'719.9
2018-Jul-12 09:30N 37°53' E 023°31'1019.0
2018-Jul-12 09:00N 37°45' E 023°26'1224.8
2018-Jul-12 08:31N 37°55' E 023°34'3 6.4
2018-Jul-12 08:00N 37°56' E 023°38'1428.7
2018-Jul-12 07:31N 37°46' E 023°25'5 9.4
2018-Jul-12 07:00N 37°43' E 023°21'713.3
2018-Jul-12 06:31N 37°48' E 023°27'1326.1
2018-Jul-12 06:00N 37°57' E 023°39'4 8.6
2018-Jul-12 05:31N 37°55' E 023°34'1215.0
2018-Jul-12 04:43N 37°45' E 023°26'525.2
2018-Jul-12 04:30N 37°49' E 023°29'1121.3
2018-Jul-12 04:00N 37°57' E 023°39'0 0.0
2018-Jul-11 12:25N 37°57' E 023°39'921.1
2018-Jul-11 12:01N 37°50' E 023°32'918.8
2018-Jul-11 11:31N 37°44' E 023°23'3 5.1
2018-Jul-11 11:00N 37°45' E 023°26'918.2
2018-Jul-11 10:31N 37°52' E 023°33'713.5
2018-Jul-11 10:00N 37°57' E 023°39'1323.7
2018-Jul-11 09:27N 37°47' E 023°27'2 3.5
2018-Jul-11 09:01N 37°47' E 023°25'1428.4
2018-Jul-11 08:30N 37°56' E 023°38'1516.9
2018-Jul-11 07:35N 37°45' E 023°24'1 4.2
2018-Jul-11 07:20N 37°45' E 023°26'412.7
2018-Jul-11 07:00N 37°43' E 023°21'510.8
2018-Jul-11 06:31N 37°47' E 023°26'1427.9
2018-Jul-11 06:01N 37°57' E 023°38'3 6.6
2018-Jul-11 05:31N 37°54' E 023°36'1216.4
2018-Jul-11 04:46N 37°45' E 023°26'521.1
2018-Jul-11 04:31N 37°49' E 023°30'1020.7
2018-Jul-11 04:00N 37°57' E 023°39'0 0.0
2018-Jul-10 18:04N 37°57' E 023°39'0 0.0
2018-Jul-10 18:00N 37°57' E 023°39'1325.6
2018-Jul-10 17:31N 37°48' E 023°27'713.7
2018-Jul-10 17:00N 37°43' E 023°21'713.3
2018-Jul-10 16:31N 37°48' E 023°27'1326.1
2018-Jul-10 16:01N 37°57' E 023°39'0 0.0
2018-Jul-10 13:59N 37°57' E 023°39'817.0
2018-Jul-10 13:31N 37°51' E 023°32'815.0
2018-Jul-10 13:00N 37°45' E 023°25'1530.0
2018-Jul-10 12:30N 37°56' E 023°38'510.7
2018-Jul-10 12:01N 37°52' E 023°34'1019.4
2018-Jul-10 11:30N 37°45' E 023°26'3 6.8
2018-Jul-10 11:00N 37°43' E 023°22'815.5
2018-Jul-10 10:31N 37°49' E 023°29'1121.9
2018-Jul-10 10:00N 37°57' E 023°39'510.4
2018-Jul-10 09:31N 37°53' E 023°34'1116.7
2018-Jul-10 08:53N 37°45' E 023°26'1027.4
2018-Jul-10 08:31N 37°52' E 023°34'611.2
2018-Jul-10 08:00N 37°57' E 023°39'1427.4
2018-Jul-10 07:31N 37°47' E 023°27'611.6
2018-Jul-10 07:00N 37°43' E 023°21'4 7.1
2018-Jul-10 06:30N 37°45' E 023°25'1531.1
2018-Jul-10 06:01N 37°56' E 023°37'1 2.3
2018-Jul-10 05:30N 37°57' E 023°39'0 0.0
2018-Jul-09 16:07N 37°57' E 023°39'0 0.0
2018-Jul-09 16:01N 37°57' E 023°39'1326.3
2018-Jul-09 15:30N 37°47' E 023°27'711.8
2018-Jul-09 14:57N 37°43' E 023°21'410.0
2018-Jul-09 14:31N 37°46' E 023°25'1529.8
2018-Jul-09 14:00N 37°57' E 023°38'611.8
2018-Jul-09 13:31N 37°52' E 023°33'919.0
2018-Jul-09 13:00N 37°45' E 023°26'1326.2
2018-Jul-09 12:31N 37°55' E 023°36'3 5.0
2018-Jul-09 12:01N 37°57' E 023°38'1427.9
2018-Jul-09 11:30N 37°47' E 023°26'510.9
2018-Jul-09 11:00N 37°43' E 023°21'613.0
2018-Jul-09 10:31N 37°47' E 023°27'1326.3
2018-Jul-09 10:00N 37°57' E 023°39'714.5
2018-Jul-09 09:31N 37°51' E 023°33'916.1
2018-Jul-09 08:58N 37°45' E 023°25'1226.0
2018-Jul-09 08:31N 37°54' E 023°35'3 6.4
2018-Jul-09 08:00N 37°56' E 023°38'1530.1
2018-Jul-09 07:30N 37°45' E 023°25'1 0.9
2018-Jul-09 06:51N 37°45' E 023°24'1421.4
2018-Jul-09 06:11N 37°55' E 023°36'213.7
2018-Jul-09 06:01N 37°57' E 023°39'4 8.2
2018-Jul-09 05:31N 37°53' E 023°36'1214.9
2018-Jul-09 04:42N 37°45' E 023°25'628.7
2018-Jul-09 04:31N 37°49' E 023°30'1020.6
2018-Jul-09 04:01N 37°57' E 023°39'0 0.0
2018-Jul-08 18:52N 37°57' E 023°39'0 0.1
2018-Jul-08 18:30N 37°57' E 023°39'816.8
2018-Jul-08 18:00N 37°52' E 023°30'918.5
2018-Jul-08 17:30N 37°44' E 023°24'1 1.9
2018-Jul-08 17:01N 37°45' E 023°24'1019.9
2018-Jul-08 16:31N 37°53' E 023°30'714.3
2018-Jul-08 16:00N 37°57' E 023°39'1427.2
2018-Jul-08 15:30N 37°47' E 023°26'611.8
2018-Jul-08 14:59N 37°43' E 023°21'4 9.3
2018-Jul-08 14:30N 37°46' E 023°25'1529.4
2018-Jul-08 14:00N 37°56' E 023°38'2 4.3
2018-Jul-08 13:31N 37°55' E 023°36'1321.7
2018-Jul-08 12:54N 37°45' E 023°26'820.0
2018-Jul-08 12:31N 37°51' E 023°32'815.5
2018-Jul-08 12:01N 37°57' E 023°39'1224.8
2018-Jul-08 11:30N 37°48' E 023°28'714.5
2018-Jul-08 11:01N 37°43' E 023°21'4 7.3
2018-Jul-08 10:31N 37°45' E 023°25'1530.8
2018-Jul-08 10:00N 37°56' E 023°38'1 1.5
2018-Jul-08 09:30N 37°57' E 023°39'0 0.0
2018-Jul-07 16:03N 37°57' E 023°39'0 0.1
2018-Jul-07 16:00N 37°57' E 023°39'1325.9
2018-Jul-07 15:30N 37°47' E 023°27'713.4
2018-Jul-07 15:00N 37°43' E 023°21'4 8.2
2018-Jul-07 14:30N 37°45' E 023°26'1529.3
2018-Jul-07 14:01N 37°56' E 023°37'1 1.9
2018-Jul-07 13:31N 37°55' E 023°36'1426.7
2018-Jul-07 13:00N 37°45' E 023°26'713.5
2018-Jul-07 12:31N 37°50' E 023°31'918.2
2018-Jul-07 12:00N 37°57' E 023°39'1224.6
2018-Jul-07 11:30N 37°48' E 023°28'714.9
2018-Jul-07 11:00N 37°43' E 023°21'5 9.2
2018-Jul-07 10:31N 37°46' E 023°25'1529.2
2018-Jul-07 10:00N 37°57' E 023°38'3 5.3
2018-Jul-07 09:31N 37°55' E 023°36'1325.2
2018-Jul-07 09:00N 37°45' E 023°26'4 7.8
2018-Jul-07 08:31N 37°48' E 023°28'1223.9
2018-Jul-07 08:01N 37°57' E 023°39'0 0.0
2018-Jul-06 16:13N 37°57' E 023°39'  

Dump ship's entire track history